DLH1892 LKPR-EDDF
Flight info
| Callsign | DLH1892 |
|---|---|
| Flight time | 1h 3m |
| Altitude | 30000 |
| Route | BALTU4B/30 BALTU DCT DONAD DCT RAPET T170 VAGAB/N0399F240 T170 GAPLA T178 KERAX KERAX5D |
| Aircraft | A321/M-SDE3FGHIRWY/LB1 |
Departure
| Time | 2026-04-14 16:24 |
|---|---|
| Airport | Václav Havel Airport Prague (LKPR) |
Arrival
| Time | 2026-04-14 17:27 |
|---|---|
| Airport | Frankfurt Main Airport (EDDF) |
| Time | Latitude | Longitude | Altitude | Speed | Heading |
|---|---|---|---|---|---|
| 2026-04-14 16:08 | 50.10683 | 14.25998 | 1180 ft | 0 kts | 126° |
| 2026-04-14 16:18 | 50.10665 | 14.26038 | 1178 ft | 9 kts | 125° |
| 2026-04-14 16:18 | 50.10625 | 14.26057 | 1183 ft | 6 kts | 195° |
| 2026-04-14 16:18 | 50.10579 | 14.26019 | 1186 ft | 12 kts | 215° |
| 2026-04-14 16:19 | 50.10496 | 14.26000 | 1190 ft | 13 kts | 144° |
| 2026-04-14 16:19 | 50.10438 | 14.26110 | 1192 ft | 14 kts | 126° |
| 2026-04-14 16:19 | 50.10372 | 14.26244 | 1193 ft | 17 kts | 127° |
| 2026-04-14 16:19 | 50.10296 | 14.26398 | 1195 ft | 19 kts | 127° |
| 2026-04-14 16:20 | 50.10214 | 14.26571 | 1200 ft | 20 kts | 127° |
| 2026-04-14 16:20 | 50.10128 | 14.26744 | 1205 ft | 21 kts | 128° |
| 2026-04-14 16:20 | 50.10084 | 14.26839 | 1208 ft | 9 kts | 125° |
| 2026-04-14 16:20 | 50.10018 | 14.26986 | 1209 ft | 21 kts | 124° |
| 2026-04-14 16:21 | 50.09975 | 14.27081 | 1209 ft | 1 kts | 124° |
| 2026-04-14 16:21 | 50.09967 | 14.27100 | 1210 ft | 4 kts | 124° |
| 2026-04-14 16:21 | 50.09947 | 14.27143 | 1210 ft | 6 kts | 129° |
| 2026-04-14 16:21 | 50.09875 | 14.27270 | 1211 ft | 26 kts | 128° |
| 2026-04-14 16:22 | 50.09748 | 14.27475 | 1214 ft | 27 kts | 136° |
| 2026-04-14 16:22 | 50.09635 | 14.27634 | 1220 ft | 13 kts | 157° |
| 2026-04-14 16:22 | 50.09599 | 14.27626 | 1223 ft | 2 kts | 206° |
| 2026-04-14 16:22 | 50.09587 | 14.27615 | 1224 ft | 0 kts | 210° |
| 2026-04-14 16:23 | 50.09530 | 14.27558 | 1227 ft | 17 kts | 213° |
| 2026-04-14 16:23 | 50.09431 | 14.27429 | 1224 ft | 13 kts | 240° |
| 2026-04-14 16:23 | 50.09449 | 14.27340 | 1221 ft | 13 kts | 305° |
| 2026-04-14 16:24 | 50.09684 | 14.26849 | 1213 ft | 106 kts | 307° |
| 2026-04-14 16:24 | 50.10269 | 14.25621 | 1429 ft | 164 kts | 306° |
| 2026-04-14 16:24 | 50.10987 | 14.24097 | 2155 ft | 185 kts | 306° |
| 2026-04-14 16:24 | 50.11793 | 14.22395 | 2746 ft | 204 kts | 307° |
| 2026-04-14 16:25 | 50.12712 | 14.20583 | 3207 ft | 223 kts | 308° |
| 2026-04-14 16:25 | 50.13757 | 14.18581 | 3519 ft | 256 kts | 309° |
| 2026-04-14 16:25 | 50.14951 | 14.16307 | 4207 ft | 272 kts | 308° |
| 2026-04-14 16:25 | 50.16081 | 14.13967 | 5574 ft | 269 kts | 306° |
| 2026-04-14 16:26 | 50.17168 | 14.11609 | 6712 ft | 272 kts | 305° |
| 2026-04-14 16:26 | 50.18278 | 14.09183 | 7816 ft | 277 kts | 305° |
| 2026-04-14 16:26 | 50.19416 | 14.06724 | 8867 ft | 281 kts | 306° |
| 2026-04-14 16:26 | 50.20582 | 14.04237 | 9878 ft | 286 kts | 306° |
| 2026-04-14 16:27 | 50.21634 | 14.01515 | 10563 ft | 304 kts | 293° |
| 2026-04-14 16:27 | 50.22077 | 13.99380 | 10836 ft | 320 kts | 282° |
| 2026-04-14 16:27 | 50.22192 | 13.95825 | 11388 ft | 336 kts | 263° |
| 2026-04-14 16:27 | 50.21626 | 13.92258 | 12203 ft | 342 kts | 251° |
| 2026-04-14 16:28 | 50.20870 | 13.88703 | 13084 ft | 347 kts | 252° |
| 2026-04-14 16:28 | 50.20113 | 13.85107 | 13936 ft | 351 kts | 252° |
| 2026-04-14 16:28 | 50.19347 | 13.81457 | 14766 ft | 356 kts | 252° |
| 2026-04-14 16:28 | 50.18569 | 13.77758 | 15588 ft | 360 kts | 252° |
| 2026-04-14 16:29 | 50.17782 | 13.74033 | 16397 ft | 364 kts | 252° |
| 2026-04-14 16:29 | 50.16979 | 13.70243 | 17178 ft | 368 kts | 252° |
| 2026-04-14 16:29 | 50.16180 | 13.66486 | 18002 ft | 368 kts | 252° |
| 2026-04-14 16:29 | 50.15375 | 13.62697 | 18890 ft | 368 kts | 252° |
| 2026-04-14 16:30 | 50.14557 | 13.58851 | 19444 ft | 378 kts | 252° |
| 2026-04-14 16:30 | 50.13719 | 13.54923 | 20053 ft | 384 kts | 251° |
| 2026-04-14 16:30 | 50.12870 | 13.50949 | 20692 ft | 389 kts | 251° |
| 2026-04-14 16:30 | 50.12011 | 13.46922 | 21317 ft | 393 kts | 251° |
| 2026-04-14 16:31 | 50.11142 | 13.42859 | 21943 ft | 397 kts | 251° |
| 2026-04-14 16:31 | 50.10258 | 13.38760 | 22563 ft | 400 kts | 251° |
| 2026-04-14 16:31 | 50.09396 | 13.34619 | 23124 ft | 404 kts | 255° |
| 2026-04-14 16:31 | 50.08894 | 13.30288 | 23666 ft | 408 kts | 265° |
| 2026-04-14 16:32 | 50.08766 | 13.25864 | 24221 ft | 411 kts | 268° |
| 2026-04-14 16:32 | 50.08664 | 13.21385 | 24783 ft | 415 kts | 268° |
| 2026-04-14 16:32 | 50.08555 | 13.16878 | 25325 ft | 418 kts | 268° |
| 2026-04-14 16:32 | 50.08437 | 13.12405 | 25732 ft | 420 kts | 268° |
| 2026-04-14 16:33 | 50.08309 | 13.07837 | 26108 ft | 422 kts | 267° |
| 2026-04-14 16:33 | 50.08190 | 13.03251 | 26485 ft | 425 kts | 269° |
| 2026-04-14 16:33 | 50.08401 | 12.98652 | 26871 ft | 427 kts | 279° |
| 2026-04-14 16:33 | 50.09063 | 12.94124 | 27242 ft | 430 kts | 285° |
| 2026-04-14 16:34 | 50.09831 | 12.89604 | 27615 ft | 433 kts | 284° |
| 2026-04-14 16:34 | 50.10602 | 12.85052 | 27993 ft | 435 kts | 284° |
| 2026-04-14 16:34 | 50.11361 | 12.80541 | 28363 ft | 438 kts | 284° |
| 2026-04-14 16:34 | 50.12142 | 12.75878 | 28744 ft | 441 kts | 284° |
| 2026-04-14 16:35 | 50.12915 | 12.71238 | 29121 ft | 443 kts | 284° |
| 2026-04-14 16:35 | 50.13679 | 12.66636 | 29493 ft | 446 kts | 284° |
| 2026-04-14 16:35 | 50.14455 | 12.61938 | 29860 ft | 448 kts | 284° |
| 2026-04-14 16:35 | 50.15234 | 12.57220 | 29986 ft | 446 kts | 284° |
| 2026-04-14 16:36 | 50.15996 | 12.52592 | 30012 ft | 435 kts | 284° |
| 2026-04-14 16:36 | 50.17481 | 12.43519 | 30006 ft | 430 kts | 284° |
| 2026-04-14 16:37 | 50.18956 | 12.34488 | 30016 ft | 429 kts | 285° |
| 2026-04-14 16:37 | 50.20937 | 12.25681 | 30001 ft | 430 kts | 290° |
| 2026-04-14 16:38 | 50.22962 | 12.16887 | 30016 ft | 430 kts | 289° |
| 2026-04-14 16:38 | 50.24977 | 12.08086 | 30016 ft | 430 kts | 289° |
| 2026-04-14 16:39 | 50.26969 | 11.99332 | 30011 ft | 430 kts | 289° |
| 2026-04-14 16:39 | 50.28996 | 11.90520 | 30010 ft | 430 kts | 290° |
| 2026-04-14 16:40 | 50.31018 | 11.81714 | 30018 ft | 430 kts | 289° |
| 2026-04-14 16:40 | 50.33013 | 11.72948 | 30018 ft | 430 kts | 289° |
| 2026-04-14 16:41 | 50.35015 | 11.64121 | 30012 ft | 430 kts | 289° |
| 2026-04-14 16:41 | 50.37016 | 11.55290 | 30015 ft | 431 kts | 289° |
| 2026-04-14 16:42 | 50.39011 | 11.46447 | 30025 ft | 430 kts | 289° |
| 2026-04-14 16:42 | 50.40992 | 11.37580 | 30016 ft | 430 kts | 289° |
| 2026-04-14 16:43 | 50.42962 | 11.28698 | 30019 ft | 431 kts | 289° |
| 2026-04-14 16:43 | 50.44913 | 11.19881 | 30025 ft | 430 kts | 289° |
| 2026-04-14 16:44 | 50.46874 | 11.11012 | 30017 ft | 430 kts | 289° |
| 2026-04-14 16:44 | 50.48835 | 11.02122 | 30015 ft | 430 kts | 289° |
| 2026-04-14 16:45 | 50.51757 | 10.88752 | 30012 ft | 431 kts | 289° |
| 2026-04-14 16:45 | 50.53716 | 10.79721 | 29605 ft | 447 kts | 289° |
| 2026-04-14 16:46 | 50.54742 | 10.75095 | 28410 ft | 452 kts | 289° |
| 2026-04-14 16:46 | 50.55807 | 10.70411 | 27453 ft | 452 kts | 290° |
| 2026-04-14 16:46 | 50.56866 | 10.65806 | 26870 ft | 442 kts | 290° |
| 2026-04-14 16:46 | 50.57906 | 10.61286 | 26203 ft | 435 kts | 290° |
| 2026-04-14 16:47 | 50.58919 | 10.56852 | 25564 ft | 427 kts | 289° |
| 2026-04-14 16:47 | 50.59912 | 10.52476 | 24931 ft | 419 kts | 289° |
| 2026-04-14 16:47 | 50.60868 | 10.48240 | 24337 ft | 411 kts | 289° |
| 2026-04-14 16:47 | 50.61811 | 10.44036 | 23755 ft | 404 kts | 289° |
| 2026-04-14 16:48 | 50.62739 | 10.39894 | 23204 ft | 396 kts | 289° |
| 2026-04-14 16:48 | 50.63637 | 10.35832 | 22672 ft | 389 kts | 287° |
| 2026-04-14 16:48 | 50.64158 | 10.31687 | 22149 ft | 382 kts | 275° |
| 2026-04-14 16:48 | 50.64124 | 10.27545 | 21633 ft | 376 kts | 263° |
| 2026-04-14 16:49 | 50.63572 | 10.23560 | 21120 ft | 369 kts | 252° |
| 2026-04-14 16:49 | 50.62560 | 10.19885 | 20610 ft | 363 kts | 242° |
| 2026-04-14 16:49 | 50.61354 | 10.16423 | 20089 ft | 357 kts | 241° |
| 2026-04-14 16:49 | 50.60169 | 10.13017 | 19567 ft | 353 kts | 241° |
| 2026-04-14 16:50 | 50.59014 | 10.09690 | 19039 ft | 350 kts | 241° |
| 2026-04-14 16:50 | 50.57848 | 10.06336 | 18514 ft | 347 kts | 241° |
| 2026-04-14 16:50 | 50.56693 | 10.03019 | 17975 ft | 345 kts | 241° |
| 2026-04-14 16:50 | 50.55543 | 9.99717 | 17435 ft | 342 kts | 241° |
| 2026-04-14 16:51 | 50.54428 | 9.96429 | 16883 ft | 339 kts | 245° |
| 2026-04-14 16:51 | 50.53627 | 9.92969 | 16342 ft | 335 kts | 255° |
| 2026-04-14 16:51 | 50.53008 | 9.89454 | 15813 ft | 333 kts | 255° |
| 2026-04-14 16:51 | 50.52385 | 9.85952 | 15284 ft | 330 kts | 254° |
| 2026-04-14 16:52 | 50.51760 | 9.82495 | 14754 ft | 327 kts | 254° |
| 2026-04-14 16:52 | 50.51137 | 9.79073 | 14231 ft | 324 kts | 254° |
| 2026-04-14 16:52 | 50.50529 | 9.75730 | 13716 ft | 322 kts | 254° |
| 2026-04-14 16:52 | 50.49918 | 9.72348 | 13193 ft | 319 kts | 255° |
| 2026-04-14 16:53 | 50.49340 | 9.69027 | 12961 ft | 308 kts | 255° |
| 2026-04-14 16:53 | 50.48804 | 9.65890 | 13000 ft | 287 kts | 255° |
| 2026-04-14 16:53 | 50.48306 | 9.62964 | 13007 ft | 269 kts | 255° |
| 2026-04-14 16:53 | 50.47835 | 9.60201 | 13008 ft | 257 kts | 255° |
| 2026-04-14 16:54 | 50.47372 | 9.57503 | 13009 ft | 255 kts | 255° |
| 2026-04-14 16:54 | 50.46949 | 9.54809 | 13008 ft | 254 kts | 264° |
| 2026-04-14 16:54 | 50.47143 | 9.52080 | 13009 ft | 254 kts | 290° |
| 2026-04-14 16:54 | 50.48087 | 9.49761 | 13008 ft | 254 kts | 316° |
| 2026-04-14 16:55 | 50.49582 | 9.48315 | 13008 ft | 255 kts | 342° |
| 2026-04-14 16:55 | 50.51338 | 9.48023 | 13010 ft | 256 kts | 8° |
| 2026-04-14 16:55 | 50.53057 | 9.48744 | 13012 ft | 256 kts | 18° |
| 2026-04-14 16:55 | 50.54751 | 9.49649 | 13011 ft | 257 kts | 19° |
| 2026-04-14 16:56 | 50.56431 | 9.50593 | 13011 ft | 257 kts | 20° |
| 2026-04-14 16:56 | 50.57968 | 9.51990 | 13009 ft | 257 kts | 44° |
| 2026-04-14 16:56 | 50.58935 | 9.54320 | 13011 ft | 257 kts | 72° |
| 2026-04-14 16:56 | 50.59120 | 9.57099 | 13009 ft | 257 kts | 99° |
| 2026-04-14 16:57 | 50.58492 | 9.59663 | 13008 ft | 256 kts | 126° |
| 2026-04-14 16:57 | 50.57173 | 9.61512 | 13011 ft | 256 kts | 154° |
| 2026-04-14 16:57 | 50.55478 | 9.62201 | 13007 ft | 247 kts | 181° |
| 2026-04-14 16:57 | 50.53851 | 9.61723 | 13006 ft | 233 kts | 198° |
| 2026-04-14 16:58 | 50.52315 | 9.60928 | 13009 ft | 232 kts | 200° |
| 2026-04-14 16:58 | 50.50807 | 9.60091 | 13004 ft | 232 kts | 200° |
| 2026-04-14 16:58 | 50.49275 | 9.59229 | 13429 ft | 234 kts | 200° |
| 2026-04-14 16:58 | 50.47734 | 9.58365 | 14401 ft | 235 kts | 200° |
| 2026-04-14 16:59 | 50.46311 | 9.57098 | 15251 ft | 239 kts | 225° |
| 2026-04-14 16:59 | 50.45453 | 9.54883 | 16070 ft | 241 kts | 256° |
| 2026-04-14 16:59 | 50.45420 | 9.52239 | 16754 ft | 248 kts | 285° |
| 2026-04-14 16:59 | 50.46237 | 9.49940 | 16903 ft | 245 kts | 316° |
| 2026-04-14 17:00 | 50.47683 | 9.48628 | 16626 ft | 242 kts | 347° |
| 2026-04-14 17:00 | 50.49351 | 9.48663 | 16308 ft | 242 kts | 16° |
| 2026-04-14 17:00 | 50.50951 | 9.49499 | 15979 ft | 243 kts | 19° |
| 2026-04-14 17:00 | 50.52545 | 9.50383 | 15688 ft | 242 kts | 19° |
| 2026-04-14 17:01 | 50.54129 | 9.51268 | 15386 ft | 241 kts | 19° |
| 2026-04-14 17:01 | 50.55706 | 9.52148 | 15110 ft | 240 kts | 21° |
| 2026-04-14 17:01 | 50.57073 | 9.53544 | 14818 ft | 238 kts | 49° |
| 2026-04-14 17:01 | 50.57816 | 9.55862 | 14518 ft | 236 kts | 81° |
| 2026-04-14 17:02 | 50.57726 | 9.58376 | 14205 ft | 235 kts | 110° |
| 2026-04-14 17:02 | 50.56859 | 9.60521 | 13886 ft | 233 kts | 139° |
| 2026-04-14 17:02 | 50.55449 | 9.61714 | 13563 ft | 231 kts | 169° |
| 2026-04-14 17:02 | 50.53866 | 9.61680 | 13248 ft | 229 kts | 197° |
| 2026-04-14 17:03 | 50.52346 | 9.60897 | 12915 ft | 230 kts | 200° |
| 2026-04-14 17:03 | 50.50839 | 9.60069 | 12612 ft | 229 kts | 200° |
| 2026-04-14 17:03 | 50.49334 | 9.59233 | 12305 ft | 229 kts | 200° |
| 2026-04-14 17:03 | 50.47837 | 9.58404 | 12009 ft | 228 kts | 200° |
| 2026-04-14 17:04 | 50.46460 | 9.57234 | 11705 ft | 225 kts | 225° |
| 2026-04-14 17:04 | 50.45635 | 9.55232 | 11405 ft | 222 kts | 253° |
| 2026-04-14 17:04 | 50.45267 | 9.52878 | 11086 ft | 222 kts | 257° |
| 2026-04-14 17:04 | 50.44920 | 9.50490 | 11030 ft | 237 kts | 257° |
| 2026-04-14 17:05 | 50.44545 | 9.47887 | 10783 ft | 251 kts | 257° |
| 2026-04-14 17:05 | 50.44144 | 9.45122 | 10169 ft | 269 kts | 257° |
| 2026-04-14 17:05 | 50.43712 | 9.42151 | 10010 ft | 284 kts | 257° |
| 2026-04-14 17:05 | 50.43270 | 9.39113 | 10011 ft | 288 kts | 257° |
| 2026-04-14 17:06 | 50.42822 | 9.36041 | 10012 ft | 289 kts | 257° |
| 2026-04-14 17:06 | 50.42312 | 9.32998 | 10010 ft | 289 kts | 252° |
| 2026-04-14 17:06 | 50.41569 | 9.30072 | 10006 ft | 289 kts | 244° |
| 2026-04-14 17:06 | 50.40607 | 9.27344 | 10009 ft | 289 kts | 237° |
| 2026-04-14 17:07 | 50.39411 | 9.24770 | 10011 ft | 289 kts | 230° |
| 2026-04-14 17:07 | 50.38052 | 9.22491 | 10003 ft | 289 kts | 223° |
| 2026-04-14 17:07 | 50.36515 | 9.20472 | 10015 ft | 289 kts | 216° |
| 2026-04-14 17:07 | 50.34830 | 9.18745 | 10013 ft | 289 kts | 212° |
| 2026-04-14 17:08 | 50.33114 | 9.17089 | 10004 ft | 289 kts | 212° |
| 2026-04-14 17:08 | 50.31410 | 9.15406 | 10010 ft | 289 kts | 215° |
| 2026-04-14 17:08 | 50.29821 | 9.13464 | 10014 ft | 289 kts | 222° |
| 2026-04-14 17:08 | 50.28396 | 9.11253 | 10011 ft | 289 kts | 229° |
| 2026-04-14 17:09 | 50.27148 | 9.08794 | 10007 ft | 288 kts | 235° |
| 2026-04-14 17:09 | 50.26100 | 9.06149 | 9766 ft | 285 kts | 242° |
| 2026-04-14 17:09 | 50.25271 | 9.03360 | 9356 ft | 282 kts | 249° |
| 2026-04-14 17:09 | 50.24603 | 9.00481 | 8871 ft | 281 kts | 250° |
| 2026-04-14 17:10 | 50.23937 | 8.97614 | 8424 ft | 280 kts | 250° |
| 2026-04-14 17:10 | 50.23270 | 8.94772 | 7983 ft | 278 kts | 250° |
| 2026-04-14 17:10 | 50.22604 | 8.91941 | 7539 ft | 276 kts | 250° |
| 2026-04-14 17:10 | 50.22166 | 8.90083 | 7250 ft | 275 kts | 250° |
| 2026-04-14 17:11 | 50.21294 | 8.86391 | 6991 ft | 273 kts | 250° |
| 2026-04-14 17:11 | 50.20636 | 8.83601 | 7013 ft | 275 kts | 250° |
| 2026-04-14 17:11 | 50.19975 | 8.80793 | 7014 ft | 275 kts | 250° |
| 2026-04-14 17:11 | 50.19314 | 8.77986 | 7015 ft | 275 kts | 250° |
| 2026-04-14 17:12 | 50.18876 | 8.76128 | 7012 ft | 275 kts | 250° |
| 2026-04-14 17:12 | 50.18214 | 8.73322 | 7013 ft | 275 kts | 250° |
| 2026-04-14 17:12 | 50.17548 | 8.70509 | 7013 ft | 275 kts | 250° |
| 2026-04-14 17:12 | 50.16883 | 8.67704 | 7010 ft | 275 kts | 250° |
| 2026-04-14 17:13 | 50.16221 | 8.64919 | 6867 ft | 273 kts | 250° |
| 2026-04-14 17:13 | 50.15563 | 8.62160 | 6418 ft | 271 kts | 250° |
| 2026-04-14 17:13 | 50.14903 | 8.59399 | 5979 ft | 270 kts | 250° |
| 2026-04-14 17:13 | 50.14247 | 8.56657 | 5546 ft | 268 kts | 250° |
| 2026-04-14 17:14 | 50.13597 | 8.53943 | 5118 ft | 267 kts | 250° |
| 2026-04-14 17:14 | 50.12952 | 8.51251 | 4821 ft | 262 kts | 250° |
| 2026-04-14 17:14 | 50.12323 | 8.48625 | 4790 ft | 256 kts | 250° |
| 2026-04-14 17:14 | 50.11719 | 8.46113 | 4795 ft | 239 kts | 250° |
| 2026-04-14 17:15 | 50.11144 | 8.43714 | 4798 ft | 235 kts | 250° |
| 2026-04-14 17:15 | 50.10570 | 8.41326 | 4799 ft | 235 kts | 250° |
| 2026-04-14 17:15 | 50.09991 | 8.38932 | 4799 ft | 235 kts | 249° |
| 2026-04-14 17:15 | 50.09414 | 8.36548 | 4799 ft | 235 kts | 249° |
| 2026-04-14 17:16 | 50.08837 | 8.34168 | 4800 ft | 235 kts | 249° |
| 2026-04-14 17:16 | 50.08261 | 8.31790 | 4800 ft | 235 kts | 249° |
| 2026-04-14 17:16 | 50.07689 | 8.29432 | 4800 ft | 235 kts | 249° |
| 2026-04-14 17:16 | 50.07114 | 8.27050 | 4800 ft | 235 kts | 250° |
| 2026-04-14 17:17 | 50.06541 | 8.24667 | 4800 ft | 235 kts | 249° |
| 2026-04-14 17:17 | 50.05965 | 8.22287 | 4800 ft | 235 kts | 249° |
| 2026-04-14 17:17 | 50.05387 | 8.19911 | 4800 ft | 235 kts | 249° |
| 2026-04-14 17:17 | 50.04806 | 8.17533 | 4800 ft | 235 kts | 249° |
| 2026-04-14 17:18 | 50.04224 | 8.15159 | 4800 ft | 235 kts | 249° |
| 2026-04-14 17:18 | 50.03641 | 8.12779 | 4800 ft | 235 kts | 249° |
| 2026-04-14 17:18 | 50.03060 | 8.10409 | 4799 ft | 235 kts | 249° |
| 2026-04-14 17:18 | 50.02476 | 8.08028 | 4800 ft | 235 kts | 249° |
| 2026-04-14 17:19 | 50.01896 | 8.05653 | 4800 ft | 235 kts | 249° |
| 2026-04-14 17:19 | 50.01324 | 8.03309 | 4800 ft | 235 kts | 249° |
| 2026-04-14 17:19 | 50.00744 | 8.00935 | 4800 ft | 235 kts | 249° |
| 2026-04-14 17:19 | 49.99922 | 7.98757 | 4801 ft | 235 kts | 229° |
| 2026-04-14 17:20 | 49.98662 | 7.97185 | 4801 ft | 235 kts | 203° |
| 2026-04-14 17:20 | 49.97051 | 7.96797 | 4800 ft | 236 kts | 176° |
| 2026-04-14 17:20 | 49.95462 | 7.97425 | 4800 ft | 237 kts | 155° |
| 2026-04-14 17:20 | 49.94117 | 7.98903 | 4800 ft | 238 kts | 134° |
| 2026-04-14 17:21 | 49.93108 | 8.00933 | 4800 ft | 239 kts | 126° |
| 2026-04-14 17:21 | 49.92376 | 8.03219 | 4801 ft | 238 kts | 98° |
| 2026-04-14 17:21 | 49.92664 | 8.05691 | 4801 ft | 237 kts | 59° |
| 2026-04-14 17:21 | 49.93573 | 8.07845 | 4797 ft | 239 kts | 62° |
| 2026-04-14 17:22 | 49.94192 | 8.10202 | 4800 ft | 239 kts | 70° |
| 2026-04-14 17:22 | 49.94749 | 8.12642 | 4800 ft | 239 kts | 70° |
| 2026-04-14 17:22 | 49.95326 | 8.15057 | 4800 ft | 239 kts | 69° |
| 2026-04-14 17:22 | 49.95914 | 8.17471 | 4766 ft | 240 kts | 69° |
| 2026-04-14 17:23 | 49.96503 | 8.19888 | 4516 ft | 237 kts | 69° |
| 2026-04-14 17:23 | 49.97083 | 8.22273 | 4203 ft | 235 kts | 69° |
| 2026-04-14 17:23 | 49.97659 | 8.24648 | 3876 ft | 233 kts | 69° |
| 2026-04-14 17:23 | 49.98229 | 8.26996 | 3544 ft | 231 kts | 69° |
| 2026-04-14 17:24 | 49.98793 | 8.29327 | 3218 ft | 229 kts | 69° |
| 2026-04-14 17:24 | 49.99343 | 8.31598 | 2903 ft | 227 kts | 69° |
| 2026-04-14 17:24 | 49.99897 | 8.33887 | 2576 ft | 224 kts | 69° |
| 2026-04-14 17:24 | 50.00420 | 8.36056 | 2289 ft | 205 kts | 69° |
| 2026-04-14 17:25 | 50.00902 | 8.38051 | 2001 ft | 187 kts | 69° |
| 2026-04-14 17:25 | 50.01334 | 8.39845 | 1775 ft | 165 kts | 69° |
| 2026-04-14 17:25 | 50.01710 | 8.41405 | 1527 ft | 145 kts | 69° |
| 2026-04-14 17:25 | 50.02047 | 8.42805 | 1332 ft | 133 kts | 69° |
| 2026-04-14 17:26 | 50.02365 | 8.44129 | 1148 ft | 129 kts | 69° |
| 2026-04-14 17:26 | 50.02678 | 8.45427 | 964 ft | 127 kts | 69° |
| 2026-04-14 17:26 | 50.02990 | 8.46713 | 786 ft | 126 kts | 69° |
| 2026-04-14 17:26 | 50.03307 | 8.47985 | 588 ft | 125 kts | 69° |
| 2026-04-14 17:27 | 50.03596 | 8.49247 | 425 ft | 125 kts | 70° |
| 2026-04-14 17:27 | 50.03886 | 8.50477 | 336 ft | 112 kts | 69° |
| 2026-04-14 17:27 | 50.04121 | 8.51448 | 331 ft | 78 kts | 70° |
| 2026-04-14 17:27 | 50.04236 | 8.51978 | 339 ft | 29 kts | 89° |
| 2026-04-14 17:28 | 50.04223 | 8.52298 | 352 ft | 25 kts | 100° |
| 2026-04-14 17:28 | 50.04217 | 8.52346 | 346 ft | 7 kts | 101° |
| 2026-04-14 17:28 | 50.04204 | 8.52449 | 347 ft | 14 kts | 100° |
| 2026-04-14 17:28 | 50.04197 | 8.52624 | 351 ft | 17 kts | 79° |
| 2026-04-14 17:29 | 50.04231 | 8.52813 | 358 ft | 19 kts | 69° |
| 2026-04-14 17:29 | 50.04283 | 8.53018 | 355 ft | 22 kts | 70° |
| 2026-04-14 17:29 | 50.04336 | 8.53240 | 365 ft | 21 kts | 70° |
| 2026-04-14 17:29 | 50.04380 | 8.53430 | 373 ft | 14 kts | 72° |
| 2026-04-14 17:30 | 50.04400 | 8.53582 | 376 ft | 18 kts | 83° |
| 2026-04-14 17:30 | 50.04414 | 8.53801 | 376 ft | 22 kts | 83° |
| 2026-04-14 17:30 | 50.04433 | 8.54058 | 376 ft | 23 kts | 86° |
| 2026-04-14 17:30 | 50.04449 | 8.54316 | 375 ft | 24 kts | 84° |
| 2026-04-14 17:31 | 50.04442 | 8.54548 | 366 ft | 24 kts | 110° |
| 2026-04-14 17:31 | 50.04324 | 8.54757 | 358 ft | 27 kts | 149° |
| 2026-04-14 17:31 | 50.04161 | 8.54860 | 359 ft | 20 kts | 159° |
| 2026-04-14 17:31 | 50.04031 | 8.54939 | 357 ft | 11 kts | 137° |
| 2026-04-14 17:32 | 50.04028 | 8.55054 | 356 ft | 13 kts | 75° |
| 2026-04-14 17:32 | 50.04064 | 8.55206 | 355 ft | 18 kts | 70° |
| 2026-04-14 17:32 | 50.04121 | 8.55446 | 353 ft | 26 kts | 70° |
| 2026-04-14 17:32 | 50.04179 | 8.55687 | 355 ft | 19 kts | 69° |
| 2026-04-14 17:33 | 50.04196 | 8.55760 | 356 ft | 0 kts | 69° |
| 2026-04-14 17:35 | 50.04196 | 8.55761 | 356 ft | 1 kts | 69° |
| 2026-04-14 17:35 | 50.04223 | 8.55871 | 359 ft | 20 kts | 70° |
| 2026-04-14 17:35 | 50.04298 | 8.55952 | 362 ft | 14 kts | 348° |
| 2026-04-14 17:35 | 50.04392 | 8.55893 | 366 ft | 14 kts | 316° |
| 2026-04-14 17:36 | 50.04383 | 8.55739 | 361 ft | 17 kts | 251° |
| 2026-04-14 17:36 | 50.04346 | 8.55586 | 358 ft | 14 kts | 241° |
| 2026-04-14 17:36 | 50.04301 | 8.55547 | 362 ft | 8 kts | 164° |
| 2026-04-14 17:36 | 50.04276 | 8.55561 | 361 ft | 0 kts | 161° |